FW1744 Isle of Palms SC US current weather conditions

sailwx.info

Wind from 198 at 3 knots gusting 7

Air temperature 17.8° C
Dewpoint 17.3° C

Last reported at 2019-Dec-09 22:02 UTC.
Time now 2019-Dec-09 23:07 UTC

Location: N 32°48' W 079°47'.
View on Google Maps.

See reports from other nearby stations

  
Tides and Currents Weather Stations Pressure Air Temp Water Temp Dewpoint Dewpoint Depression Visibility Wind Speed Wind Dir Waves Ship Positions
date/time (UTC)wind fromknots sea level pressurealtimeterstation pressurevisibilityair tempwater tempwave heightnotes
2019-Dec-09 22:02 198 3 gusting 7 17.8
2019-Dec-09 21:46 217 3 gusting 6 17.2
2019-Dec-09 21:31 203 2 gusting 4 16.7
2019-Dec-09 21:16 152 1 gusting 4 16.7
2019-Dec-09 21:01 193 2 gusting 8 17.2
2019-Dec-09 20:46 164 1 gusting 4 16.1
2019-Dec-09 20:32 142 0 gusting 3 15.6
2019-Dec-09 20:16 132 0 gusting 3 15.6
2019-Dec-09 20:01 179 1 gusting 4 15.6
2019-Dec-09 19:47 171 15.6
2019-Dec-09 19:31 162 0 gusting 3 16.1
2019-Dec-09 19:16 164 0 gusting 4 16.1
2019-Dec-09 19:01 104 1 gusting 3 16.1
2019-Dec-09 18:46 108 0 gusting 4 16.1
2019-Dec-09 18:31 129 1 gusting 7 15.6
2019-Dec-09 18:16 070 4 gusting 8 15.6
2019-Dec-09 18:01 089 2 gusting 6 15.6
2019-Dec-09 17:46 102 2 gusting 6 15.6
2019-Dec-09 17:31 056 4 gusting 6 15.0
2019-Dec-09 17:16 043 1 gusting 3 15.0
2019-Dec-09 17:01 044 3 gusting 5 14.4
2019-Dec-09 16:46 052 2 gusting 3 14.4
2019-Dec-09 16:30 044 2 gusting 4 13.3
2019-Dec-09 16:15 024 2 gusting 6 13.3
2019-Dec-09 16:00 002 3 gusting 6 13.3
2019-Dec-09 15:45 033 2 gusting 4 12.8
2019-Dec-09 15:30 057 3 gusting 6 12.8
2019-Dec-09 15:15 056 5 gusting 6 12.2
2019-Dec-09 15:00 021 4 gusting 6 12.2
2019-Dec-09 14:45 026 4 gusting 7 12.2
2019-Dec-09 14:30 046 3 gusting 7 12.2
2019-Dec-09 14:15 017 4 gusting 6 12.2
2019-Dec-09 14:00 014 4 gusting 7 12.2
2019-Dec-09 13:45 039 6 gusting 7 11.7
2019-Dec-09 13:33 054 5 gusting 7 11.7
2019-Dec-09 13:16 045 4 gusting 7 11.7
2019-Dec-09 13:01 039 4 gusting 6 11.7
2019-Dec-09 12:47 047 5 gusting 8 11.1
2019-Dec-09 12:32 064 4 gusting 8 11.1
2019-Dec-09 12:17 044 6 gusting 8 11.1
2019-Dec-09 12:02 020 5 gusting 7 11.1
2019-Dec-09 11:46 032 6 gusting 8 11.1
2019-Dec-09 11:32 027 2 gusting 7 11.1
2019-Dec-09 11:17 032 5 gusting 8 11.1
2019-Dec-09 11:01 056 5 gusting 7 11.1
2019-Dec-09 10:46 050 5 gusting 7 11.1
2019-Dec-09 10:31 072 3 gusting 8 11.1
2019-Dec-09 10:16 060 4 gusting 7 11.1
2019-Dec-09 09:46 070 2 gusting 6 11.1
2019-Dec-09 09:31 073 6 gusting 9 11.1
2019-Dec-09 09:16 059 4 gusting 7 10.6
2019-Dec-09 09:01 073 2 gusting 6 10.6
2019-Dec-09 08:46 073 3 gusting 7 10.6
2019-Dec-09 08:31 044 6 gusting 8 10.6
2019-Dec-09 08:16 031 5 gusting 7 10.6
2019-Dec-09 08:01 035 3 gusting 7 10.6
2019-Dec-09 07:45 052 6 gusting 7 10.6
2019-Dec-09 07:30 016 3 gusting 6 10.6
2019-Dec-09 07:15 021 3 gusting 6 10.6
2019-Dec-09 07:00 025 2 gusting 6 10.6
2019-Dec-09 06:45 046 3 gusting 7 10.6
2019-Dec-09 06:30 064 3 gusting 6 10.6
2019-Dec-09 06:15 077 6 gusting 9 10.6
2019-Dec-09 06:00 054 3 gusting 8 10.6
2019-Dec-09 05:45 055 6 gusting 10 10.6
2019-Dec-09 05:30 060 7 gusting 11 10.6
2019-Dec-09 05:17 067 6 gusting 10 10.6
2019-Dec-09 05:02 063 5 gusting 7 10.6
2019-Dec-09 04:46 048 5 gusting 8 10.6
2019-Dec-09 04:31 023 4 gusting 7 10.6
2019-Dec-09 04:16 018 3 gusting 7 10.6
2019-Dec-09 04:01 039 6 gusting 7 10.6
2019-Dec-09 03:46 062 5 gusting 8 10.6
2019-Dec-09 03:31 086 6 gusting 9 11.1
2019-Dec-09 03:16 049 6 gusting 8 11.1
2019-Dec-09 03:01 015 3 gusting 7 11.1
2019-Dec-09 02:46 043 2 gusting 6 11.7
2019-Dec-09 02:31 058 4 gusting 7 11.7
2019-Dec-09 02:16 053 4 gusting 7 11.7
2019-Dec-09 02:01 046 6 gusting 9 11.7
2019-Dec-09 01:47 027 6 gusting 10 11.7
2019-Dec-09 01:31 053 4 gusting 7 12.2
2019-Dec-09 01:16 032 3 gusting 8 12.2
2019-Dec-09 01:01 030 2 gusting 6 12.2
2019-Dec-09 00:46 035 3 gusting 6 12.8
2019-Dec-09 00:31 047 1 gusting 3 12.8
2019-Dec-09 00:16 026 3 gusting 6 12.8
2019-Dec-09 00:01 031 3 gusting 7 13.3
2019-Dec-08 23:46 039 4 gusting 8 13.3
2019-Dec-08 23:31 014 4 gusting 8 13.3
2019-Dec-08 23:16 017 4 gusting 7 13.9
2019-Dec-08 23:01 018 4 gusting 6 13.9
2019-Dec-08 22:46 004 2 gusting 5 13.3
2019-Dec-08 22:32 027 1 gusting 3 13.9
2019-Dec-08 22:16 035 1 gusting 3 13.9
2019-Dec-08 22:01 056 2 gusting 6 13.9
2019-Dec-08 21:46 060 4 gusting 6 14.4
2019-Dec-08 21:31 039 2 gusting 9 15.0
2019-Dec-08 21:16 044 5 gusting 9 15.0
2019-Dec-08 21:01 048 6 gusting 8 15.0
2019-Dec-08 20:46 040 6 gusting 9 15.6
2019-Dec-08 20:30 033 7 gusting 11 15.6
2019-Dec-08 20:16 030 8 gusting 12 15.6
2019-Dec-08 20:00 014 6 gusting 12 15.6
2019-Dec-08 19:45 031 6 gusting 13 15.6
2019-Dec-08 19:30 018 6 gusting 14 15.6
2019-Dec-08 19:15 029 7 gusting 12 15.6
2019-Dec-08 19:01 038 6 gusting 11 15.6
2019-Dec-08 18:46 026 8 gusting 12 15.0
2019-Dec-08 18:30 021 6 gusting 12 15.0
2019-Dec-08 18:15 008 4 gusting 9 15.0
2019-Dec-08 18:01 330 6 gusting 11 14.4
2019-Dec-08 17:45 021 6 gusting 10 13.9
2019-Dec-08 17:30 354 6 gusting 10 13.9
2019-Dec-08 17:15 004 6 gusting 12 13.3
2019-Dec-08 17:00 037 6 gusting 11 12.8
2019-Dec-08 16:47 037 6 gusting 11 12.2
2019-Dec-08 16:31 037 5 gusting 13 11.7
2019-Dec-08 16:16 029 6 gusting 12 11.1
2019-Dec-08 16:01 035 8 gusting 13 10.6
2019-Dec-08 15:46 021 6 gusting 12 10.0
2019-Dec-08 15:16 037 7 gusting 13 8.9
2019-Dec-08 15:00 037 8 gusting 13 8.3
2019-Dec-08 14:45 028 8 gusting 14 7.8
2019-Dec-08 14:30 028 8 gusting 16 7.8
2019-Dec-08 14:15 054 8 gusting 14 7.2
2019-Dec-08 14:00 015 8 gusting 13 6.7
2019-Dec-08 13:46 041 8 gusting 13 6.1
2019-Dec-08 13:30 021 6 gusting 12 6.1
2019-Dec-08 13:16 041 8 gusting 13 6.1
2019-Dec-08 13:01 039 7 gusting 15 6.1
2019-Dec-08 12:45 017 9 gusting 14 6.1
2019-Dec-08 12:30 017 8 gusting 13 6.1
2019-Dec-08 12:15 023 7 gusting 16 6.1
2019-Dec-08 12:00 018 11 gusting 15 6.1
2019-Dec-08 11:45 023 9 gusting 16 6.7
2019-Dec-08 11:30 018 11 gusting 15 6.7
2019-Dec-08 11:15 033 10 gusting 16 6.7
2019-Dec-08 11:00 021 11 gusting 17 7.2
2019-Dec-08 10:45 008 11 gusting 16 7.2
2019-Dec-08 10:30 037 11 gusting 17 7.2
2019-Dec-08 10:15 036 10 gusting 15 7.2
2019-Dec-08 10:00 026 9 gusting 15 7.2
2019-Dec-08 09:45 014 8 gusting 14 7.8
2019-Dec-08 09:33 027 9 gusting 13 8.3
2019-Dec-08 09:17 042 9 gusting 13 8.3
2019-Dec-08 09:01 037 9 gusting 15 8.9
2019-Dec-08 08:47 048 8 gusting 14 8.3
2019-Dec-08 08:31 033 8 gusting 13 8.3
2019-Dec-08 08:18 045 8 gusting 13 8.3
2019-Dec-08 08:01 033 9 gusting 14 8.9
2019-Dec-08 07:46 024 9 gusting 13 8.9
2019-Dec-08 07:31 020 8 gusting 14 8.9
2019-Dec-08 07:16 044 9 gusting 13 9.4
2019-Dec-08 07:01 046 11 gusting 16 9.4
2019-Dec-08 06:47 033 10 gusting 13 9.4
2019-Dec-08 06:31 031 9 gusting 14 9.4
2019-Dec-08 06:01 031 9 gusting 14 9.4
2019-Dec-08 05:46 062 7 gusting 13 9.4
2019-Dec-08 05:31 036 7 gusting 11 9.4
2019-Dec-08 05:16 050 6 gusting 12 9.4
2019-Dec-08 05:00 030 7 gusting 13 9.4
2019-Dec-08 04:45 012 7 gusting 13 10.0
2019-Dec-08 04:30 028 6 gusting 13 10.0
2019-Dec-08 04:15 037 7 gusting 12 10.0
2019-Dec-08 04:00 036 6 gusting 10 10.6
2019-Dec-08 03:45 031 6 gusting 11 11.1
2019-Dec-08 03:30 041 8 gusting 12 11.1
2019-Dec-08 03:15 045 6 gusting 9 11.1
2019-Dec-08 03:00 052 6 gusting 9 11.1
2019-Dec-08 02:45 044 5 gusting 9 11.1
2019-Dec-08 02:30 039 6 gusting 8 11.1
2019-Dec-08 02:15 040 3 gusting 6 11.7
2019-Dec-08 02:00 045 4 gusting 6 11.7
2019-Dec-08 01:30 060 3 gusting 6 11.7
2019-Dec-08 01:15 037 4 gusting 6 12.2
2019-Dec-08 01:00 035 4 gusting 7 12.2
2019-Dec-08 00:45 050 5 gusting 8 12.2
2019-Dec-08 00:30 039 5 gusting 9 12.8
2019-Dec-08 00:15 048 6 gusting 10 12.8
2019-Dec-07 23:47 039 7 gusting 11 12.8
2019-Dec-07 23:32 031 7 gusting 13 12.8
2019-Dec-07 23:16 041 9 gusting 12 13.3
2019-Dec-07 23:01 056 7 gusting 13 13.3